createdAt,value
2023-02-17T00:00:54.081Z,16.17
2023-02-17T00:03:24.829Z,16.10
2023-02-17T00:05:52.702Z,16.17
2023-02-17T00:08:23.482Z,16.03
2023-02-17T00:10:58.298Z,15.87
2023-02-17T00:13:26.095Z,15.10
2023-02-17T00:15:53.932Z,15.03
2023-02-17T00:18:23.222Z,15.30
2023-02-17T00:20:51.118Z,15.33
2023-02-17T00:23:18.979Z,15.33
2023-02-17T00:25:46.744Z,15.03
2023-02-17T00:28:14.487Z,14.97
2023-02-17T00:30:42.372Z,14.97
2023-02-17T00:33:10.147Z,15.10
2023-02-17T00:35:42.078Z,15.00
2023-02-17T00:38:09.779Z,14.60
2023-02-17T00:40:38.961Z,15.80
2023-02-17T00:43:06.792Z,14.17
2023-02-17T00:45:34.572Z,12.90
2023-02-17T00:48:02.273Z,9.33
2023-02-17T00:50:30.085Z,6.93
2023-02-17T00:52:59.335Z,6.47
2023-02-17T00:55:27.224Z,6.23
2023-02-17T00:57:55.038Z,5.70
2023-02-17T01:00:22.850Z,6.20
2023-02-17T01:02:50.817Z,5.80
2023-02-17T01:05:18.601Z,5.87
2023-02-17T01:07:46.352Z,5.97
2023-02-17T01:10:15.767Z,6.87
2023-02-17T01:12:43.557Z,5.80
2023-02-17T01:15:11.538Z,6.03
2023-02-17T01:17:39.314Z,6.10
2023-02-17T01:20:07.983Z,5.60
2023-02-17T01:22:35.768Z,6.03
2023-02-17T01:25:03.984Z,5.57
2023-02-17T01:27:33.222Z,5.93
2023-02-17T01:30:01.053Z,5.90
2023-02-17T01:32:29.033Z,6.73
2023-02-17T01:34:56.856Z,7.77
2023-02-17T01:37:24.574Z,12.87
2023-02-17T01:39:52.365Z,14.50
2023-02-17T01:42:20.911Z,14.87
2023-02-17T01:45:07.450Z,14.77
2023-02-17T01:47:36.639Z,14.00
2023-02-17T01:50:04.409Z,14.60
2023-02-17T01:52:32.285Z,14.63
2023-02-17T01:55:01.770Z,14.87
2023-02-17T01:57:31.514Z,14.67
2023-02-17T01:59:59.606Z,14.60
2023-02-17T02:02:29.132Z,14.00
2023-02-17T02:04:58.324Z,13.50
2023-02-17T02:07:27.950Z,13.53
2023-02-17T02:09:57.253Z,11.67
2023-02-17T02:12:26.183Z,11.77
2023-02-17T02:14:54.398Z,10.23
2023-02-17T02:17:27.357Z,7.40
2023-02-17T02:20:08.612Z,6.90
2023-02-17T02:22:49.579Z,6.70
2023-02-17T02:25:27.533Z,6.30
2023-02-17T02:27:59.195Z,6.80
2023-02-17T02:30:43.516Z,7.40
2023-02-17T02:33:15.207Z,7.00
2023-02-17T02:35:47.270Z,7.17
2023-02-17T02:38:17.794Z,7.43
2023-02-17T02:40:47.641Z,7.97
2023-02-17T02:43:15.843Z,8.03
2023-02-17T02:45:43.617Z,6.47
2023-02-17T02:48:11.378Z,6.47
2023-02-17T02:50:50.015Z,8.90
2023-02-17T02:53:29.159Z,8.33
2023-02-17T02:56:00.353Z,8.03
2023-02-17T02:58:31.222Z,7.43
2023-02-17T03:01:00.471Z,7.43
2023-02-17T03:03:30.838Z,8.20
2023-02-17T03:06:04.361Z,9.33
2023-02-17T03:08:35.371Z,10.13
2023-02-17T03:11:05.633Z,10.90
2023-02-17T03:13:34.312Z,10.10
2023-02-17T03:16:02.067Z,10.17
2023-02-17T03:18:32.860Z,9.30
2023-02-17T03:21:03.575Z,10.70
2023-02-17T03:23:31.400Z,11.47
2023-02-17T03:25:59.715Z,12.37
2023-02-17T03:28:27.574Z,11.77
2023-02-17T03:30:55.283Z,11.23
2023-02-17T03:33:22.961Z,12.50
2023-02-17T03:35:50.773Z,12.23
2023-02-17T03:38:19.921Z,11.37
2023-02-17T03:40:47.633Z,11.97
2023-02-17T03:43:17.596Z,11.83
2023-02-17T03:45:45.735Z,11.07
2023-02-17T03:48:13.509Z,11.73
2023-02-17T03:50:41.262Z,11.63
2023-02-17T03:53:08.964Z,11.60
2023-02-17T03:55:38.096Z,11.60
2023-02-17T03:58:05.873Z,11.73
2023-02-17T04:00:33.657Z,11.30
2023-02-17T04:03:01.480Z,12.00
2023-02-17T04:05:29.294Z,12.47
2023-02-17T04:07:57.063Z,12.37
2023-02-17T04:10:24.835Z,12.77
2023-02-17T04:12:53.948Z,12.40
2023-02-17T04:15:21.794Z,12.40
2023-02-17T04:17:49.505Z,12.50
2023-02-17T04:20:17.228Z,12.57
2023-02-17T04:22:46.374Z,12.57
2023-02-17T04:25:14.437Z,12.50
2023-02-17T04:27:45.299Z,11.50
2023-02-17T04:30:15.533Z,11.97
2023-02-17T04:32:43.293Z,12.23
2023-02-17T04:35:11.005Z,11.67
2023-02-17T04:37:38.721Z,10.83
2023-02-17T04:40:10.505Z,10.87
2023-02-17T04:42:38.340Z,9.90
2023-02-17T04:45:07.148Z,10.53
2023-02-17T04:47:36.328Z,10.87
2023-02-17T04:50:04.158Z,10.50
2023-02-17T04:52:31.917Z,10.27
2023-02-17T04:54:59.574Z,9.93
2023-02-17T04:57:27.323Z,10.33
2023-02-17T04:59:55.107Z,10.47
2023-02-17T05:02:22.822Z,9.83
2023-02-17T05:04:52.096Z,10.47
2023-02-17T05:07:19.939Z,8.83
2023-02-17T05:09:47.699Z,8.87
2023-02-17T05:12:15.465Z,8.90
2023-02-17T05:14:43.227Z,9.67
2023-02-17T05:17:14.113Z,8.73
2023-02-17T05:19:41.871Z,9.27
2023-02-17T05:22:10.950Z,8.53
2023-02-17T05:24:39.043Z,8.67
2023-02-17T05:27:06.841Z,8.93
2023-02-17T05:29:34.862Z,9.73
2023-02-17T05:32:02.748Z,9.37
2023-02-17T05:34:32.437Z,9.37
2023-02-17T05:37:00.209Z,9.63
2023-02-17T05:39:29.352Z,10.10
2023-02-17T05:41:57.139Z,9.57
2023-02-17T05:44:24.967Z,10.03
2023-02-17T05:46:52.675Z,11.27
2023-02-17T05:49:20.468Z,10.07
2023-02-17T05:51:48.281Z,10.57
2023-02-17T05:54:16.067Z,9.87
2023-02-17T05:56:45.265Z,10.30
2023-02-17T05:59:13.050Z,9.73
2023-02-17T06:01:40.777Z,11.47
2023-02-17T06:04:08.512Z,10.33
2023-02-17T06:06:36.293Z,10.17
2023-02-17T06:09:04.492Z,10.40
2023-02-17T06:11:32.232Z,8.13
2023-02-17T06:14:01.377Z,7.20
2023-02-17T06:16:29.321Z,6.53
2023-02-17T06:18:57.107Z,6.43
2023-02-17T06:21:24.989Z,8.33
2023-02-17T06:23:52.761Z,9.50
2023-02-17T06:26:21.435Z,9.37
2023-02-17T06:28:49.216Z,8.90
2023-02-17T06:31:18.504Z,10.20
2023-02-17T06:33:46.296Z,9.03
2023-02-17T06:36:14.078Z,10.03
2023-02-17T06:38:41.837Z,9.90
2023-02-17T06:41:09.543Z,8.37
2023-02-17T06:43:37.264Z,8.57
2023-02-17T06:46:05.544Z,6.13
2023-02-17T06:48:35.051Z,6.10
2023-02-17T06:51:02.875Z,7.37
2023-02-17T06:53:30.646Z,7.60
2023-02-17T06:55:58.361Z,8.43
2023-02-17T06:58:26.104Z,8.43
2023-02-17T07:00:53.856Z,9.70
2023-02-17T07:03:21.690Z,9.13
2023-02-17T07:05:56.492Z,9.77
2023-02-17T07:08:24.261Z,9.60
2023-02-17T07:10:52.072Z,10.33
2023-02-17T07:13:19.818Z,9.77
2023-02-17T07:15:47.557Z,12.00
2023-02-17T07:18:19.340Z,10.90
2023-02-17T07:20:48.539Z,9.90
2023-02-17T07:23:17.792Z,10.10
2023-02-17T07:25:45.683Z,10.43
2023-02-17T07:28:13.423Z,10.00
2023-02-17T07:30:41.626Z,10.20
2023-02-17T07:33:09.487Z,11.10
2023-02-17T07:35:42.023Z,8.33
2023-02-17T07:38:13.102Z,6.27
2023-02-17T07:40:42.245Z,6.90
2023-02-17T07:43:10.304Z,5.93
2023-02-17T07:45:38.128Z,5.43
2023-02-17T07:48:06.191Z,4.90
2023-02-17T07:50:34.505Z,5.40
2023-02-17T07:53:05.271Z,7.60
2023-02-17T07:55:35.280Z,6.97
2023-02-17T07:58:04.518Z,6.40
2023-02-17T08:00:32.349Z,5.70
2023-02-17T08:03:00.088Z,6.63
2023-02-17T08:05:27.893Z,5.23
2023-02-17T08:08:09.466Z,6.57
2023-02-17T08:11:01.182Z,6.00
2023-02-17T08:13:30.403Z,5.30
2023-02-17T08:15:59.435Z,5.93
2023-02-17T08:18:29.129Z,14.10
2023-02-17T08:20:58.414Z,13.30
2023-02-17T08:23:26.166Z,14.57
2023-02-17T08:25:54.017Z,14.73
2023-02-17T08:28:21.767Z,14.20
2023-02-17T08:30:52.988Z,15.23
2023-02-17T08:33:21.474Z,13.90
2023-02-17T08:35:49.251Z,13.53
2023-02-17T08:38:17.237Z,13.63
2023-02-17T08:40:44.999Z,13.90
2023-02-17T08:43:12.841Z,13.40
2023-02-17T08:45:43.648Z,13.10
2023-02-17T08:48:12.841Z,13.20
2023-02-17T08:50:40.629Z,12.97
2023-02-17T08:53:08.455Z,12.90
2023-02-17T08:55:48.599Z,12.60
2023-02-17T08:58:16.936Z,12.93
2023-02-17T09:00:44.883Z,11.90
2023-02-17T09:03:14.203Z,12.47
2023-02-17T09:05:41.972Z,11.73
2023-02-17T09:08:11.146Z,11.93
2023-02-17T09:10:38.943Z,11.60
2023-02-17T09:13:06.802Z,12.43
2023-02-17T09:15:34.544Z,12.47
2023-02-17T09:18:02.372Z,11.13
2023-02-17T09:20:31.671Z,11.40
2023-02-17T09:23:02.470Z,13.20
2023-02-17T09:25:30.225Z,12.20
2023-02-17T09:27:59.826Z,11.83
2023-02-17T09:30:27.819Z,10.43
2023-02-17T09:32:55.594Z,11.47
2023-02-17T09:35:23.967Z,10.30
2023-02-17T09:37:53.181Z,10.63
2023-02-17T09:40:24.177Z,9.90
2023-02-17T09:42:51.945Z,9.80
2023-02-17T09:45:21.779Z,9.20
2023-02-17T09:47:51.672Z,9.57
2023-02-17T09:50:20.461Z,9.60
2023-02-17T09:52:53.868Z,9.50
2023-02-17T09:55:26.848Z,9.80
2023-02-17T09:57:57.793Z,9.97
2023-02-17T10:00:27.042Z,9.93
2023-02-17T10:02:59.047Z,10.97
2023-02-17T10:05:29.360Z,10.20
2023-02-17T10:07:59.788Z,9.80
2023-02-17T10:10:30.137Z,10.37
2023-02-17T10:12:59.288Z,10.57
2023-02-17T10:15:29.131Z,10.10
2023-02-17T10:17:58.654Z,10.20
2023-02-17T10:20:29.600Z,10.53
2023-02-17T10:23:01.130Z,10.07
2023-02-17T10:25:40.579Z,9.77
2023-02-17T10:28:11.738Z,9.67
2023-02-17T10:30:41.788Z,9.93
2023-02-17T10:33:14.211Z,9.87
2023-02-17T10:35:53.774Z,9.20
2023-02-17T10:38:32.559Z,9.60
2023-02-17T10:41:03.211Z,8.97
2023-02-17T10:43:32.896Z,10.27
2023-02-17T10:46:01.877Z,10.37
2023-02-17T10:48:34.499Z,9.90
2023-02-17T10:51:02.327Z,9.37
2023-02-17T10:53:32.995Z,12.10
2023-02-17T10:56:07.611Z,12.10
2023-02-17T10:58:38.294Z,10.20
2023-02-17T11:01:06.530Z,11.23
2023-02-17T11:03:37.010Z,11.40
2023-02-17T11:06:08.659Z,10.53
2023-02-17T11:08:38.584Z,9.87
2023-02-17T11:11:09.058Z,10.90
2023-02-17T11:13:39.770Z,10.73
2023-02-17T11:16:08.149Z,10.70
2023-02-17T11:18:37.592Z,10.80
2023-02-17T11:21:07.297Z,10.60
2023-02-17T11:23:35.955Z,11.83
2023-02-17T11:26:09.318Z,10.47
2023-02-17T11:28:38.663Z,10.67
2023-02-17T11:31:07.508Z,10.17
2023-02-17T11:33:36.749Z,10.50
2023-02-17T11:36:06.044Z,11.17
2023-02-17T11:38:43.534Z,10.23
2023-02-17T11:41:11.287Z,10.70
2023-02-17T11:43:40.504Z,10.93
2023-02-17T11:46:22.606Z,10.50
2023-02-17T11:48:55.684Z,10.33
2023-02-17T11:51:30.601Z,10.77
2023-02-17T11:54:03.178Z,10.30
2023-02-17T11:56:35.586Z,10.80
2023-02-17T11:59:12.609Z,10.60
2023-02-17T12:01:49.723Z,10.80
2023-02-17T12:04:25.050Z,10.10
2023-02-17T12:06:59.320Z,9.90
2023-02-17T12:09:30.861Z,9.57
2023-02-17T12:12:06.916Z,9.63
2023-02-17T12:14:50.006Z,10.50
2023-02-17T12:17:22.981Z,10.27
2023-02-17T12:19:55.228Z,10.23
2023-02-17T12:22:29.268Z,10.30
2023-02-17T12:25:09.069Z,10.40
2023-02-17T12:27:45.221Z,9.80
2023-02-17T12:30:20.762Z,10.53
2023-02-17T12:32:56.237Z,10.57
2023-02-17T12:35:25.316Z,11.07
2023-02-17T12:37:54.945Z,10.73
2023-02-17T12:40:31.057Z,11.17
2023-02-17T12:43:01.291Z,11.17
2023-02-17T12:45:34.115Z,11.50
2023-02-17T12:48:05.177Z,10.93
2023-02-17T12:50:35.179Z,10.80
2023-02-17T12:53:04.587Z,10.17
2023-02-17T12:55:37.889Z,11.07
2023-02-17T12:58:08.926Z,10.40
2023-02-17T13:00:39.714Z,10.93
2023-02-17T13:03:09.179Z,10.37
2023-02-17T13:05:40.966Z,10.70
2023-02-17T13:08:11.388Z,10.90
2023-02-17T13:10:40.416Z,10.87
2023-02-17T13:13:11.034Z,10.80
2023-02-17T13:15:40.458Z,11.27
2023-02-17T13:18:12.668Z,11.40
2023-02-17T13:20:45.874Z,11.87
2023-02-17T13:23:23.199Z,11.53
2023-02-17T13:26:02.537Z,10.90
2023-02-17T13:28:35.541Z,11.20
2023-02-17T13:31:13.307Z,10.63
2023-02-17T13:33:46.374Z,10.23
2023-02-17T13:36:15.479Z,12.73
2023-02-17T13:38:55.132Z,11.93
2023-02-17T13:41:25.327Z,11.33
2023-02-17T13:43:53.234Z,12.67
2023-02-17T13:46:24.604Z,10.80
2023-02-17T13:49:09.713Z,11.17
2023-02-17T13:51:41.979Z,11.00
2023-02-17T13:54:10.275Z,10.90
2023-02-17T13:56:38.449Z,10.20
2023-02-17T13:59:10.548Z,11.53
2023-02-17T14:01:39.483Z,11.73
2023-02-17T14:04:18.380Z,12.00
2023-02-17T14:06:46.692Z,12.03
2023-02-17T14:09:16.421Z,11.17
2023-02-17T14:11:44.248Z,11.73
2023-02-17T14:14:15.209Z,12.17
2023-02-17T14:16:46.673Z,11.90
2023-02-17T14:19:16.707Z,12.43
2023-02-17T14:21:45.401Z,11.17
2023-02-17T14:24:25.733Z,12.43
2023-02-17T14:26:56.899Z,11.17
2023-02-17T14:29:26.111Z,10.47
2023-02-17T14:31:54.822Z,10.83
2023-02-17T14:34:28.418Z,11.10
2023-02-17T14:36:56.336Z,9.60
2023-02-17T14:39:24.412Z,12.63
2023-02-17T14:41:52.270Z,12.60
2023-02-17T14:44:20.141Z,12.10
2023-02-17T14:46:48.069Z,11.70
2023-02-17T14:49:15.978Z,11.73
2023-02-17T14:51:45.626Z,12.70
2023-02-17T14:54:15.254Z,11.87
2023-02-17T14:56:48.112Z,12.77
2023-02-17T14:59:15.889Z,11.97
2023-02-17T15:01:43.712Z,11.40
2023-02-17T15:04:11.540Z,12.00
2023-02-17T15:06:40.936Z,11.60
2023-02-17T15:09:12.851Z,11.40
2023-02-17T15:11:45.772Z,10.43
2023-02-17T15:14:18.001Z,11.30
2023-02-17T15:16:45.948Z,11.90
2023-02-17T15:19:14.370Z,11.30
2023-02-17T15:21:44.914Z,12.00
2023-02-17T15:24:16.459Z,11.93
2023-02-17T15:26:44.286Z,11.57
2023-02-17T15:29:15.848Z,12.07
2023-02-17T15:31:47.197Z,12.70
2023-02-17T15:34:19.267Z,12.93
2023-02-17T15:36:49.296Z,13.00
2023-02-17T15:39:20.202Z,11.90
2023-02-17T15:41:48.682Z,11.50
2023-02-17T15:44:17.962Z,10.87
2023-02-17T15:46:46.333Z,11.57
2023-02-17T15:49:14.506Z,11.57
2023-02-17T15:51:42.255Z,11.73
2023-02-17T15:54:13.104Z,11.80
2023-02-17T15:56:45.268Z,11.03
2023-02-17T15:59:16.673Z,11.10
2023-02-17T16:01:44.856Z,10.40
2023-02-17T16:04:13.047Z,10.30
2023-02-17T16:06:43.436Z,10.63
2023-02-17T16:09:11.646Z,10.03
2023-02-17T16:11:49.431Z,11.33
2023-02-17T16:14:22.385Z,10.73
2023-02-17T16:16:50.207Z,10.50
2023-02-17T16:19:20.927Z,10.00
2023-02-17T16:21:48.858Z,10.23
2023-02-17T16:24:16.882Z,10.10
2023-02-17T16:26:48.945Z,10.30
2023-02-17T16:29:18.403Z,10.27
2023-02-17T16:31:46.658Z,10.53
2023-02-17T16:34:15.804Z,10.50
2023-02-17T16:36:43.960Z,10.60
2023-02-17T16:39:16.214Z,10.73
2023-02-17T16:41:44.332Z,11.10
2023-02-17T16:44:16.814Z,11.17
2023-02-17T16:46:47.308Z,11.33
2023-02-17T16:49:20.393Z,10.93
2023-02-17T16:51:48.125Z,11.07
2023-02-17T16:54:17.254Z,12.03
2023-02-17T16:56:46.447Z,10.53
2023-02-17T16:59:21.070Z,9.83
2023-02-17T17:01:49.239Z,9.50
2023-02-17T17:04:17.516Z,11.53
2023-02-17T17:06:46.205Z,12.00
2023-02-17T17:09:17.020Z,10.87
2023-02-17T17:11:45.006Z,12.23
2023-02-17T17:14:12.999Z,11.33
2023-02-17T17:16:47.228Z,11.87
2023-02-17T17:19:15.182Z,11.80
2023-02-17T17:21:43.543Z,10.93
2023-02-17T17:24:11.458Z,11.50
2023-02-17T17:26:41.375Z,10.00
2023-02-17T17:29:09.389Z,11.90
2023-02-17T17:31:37.920Z,12.17
2023-02-17T17:34:07.189Z,12.40
2023-02-17T17:36:35.752Z,12.10
2023-02-17T17:39:04.449Z,11.07
2023-02-17T17:41:32.566Z,11.13
2023-02-17T17:44:00.380Z,11.70
2023-02-17T17:46:29.602Z,11.10
2023-02-17T17:48:59.181Z,11.77
2023-02-17T17:51:29.417Z,11.20
2023-02-17T17:53:57.532Z,11.90
2023-02-17T17:56:27.516Z,11.03
2023-02-17T17:58:56.371Z,11.90
2023-02-17T18:01:24.622Z,12.00
2023-02-17T18:03:52.410Z,12.43
2023-02-17T18:06:26.454Z,12.00
2023-02-17T18:09:05.555Z,12.93
2023-02-17T18:11:33.586Z,12.30
2023-02-17T18:14:04.289Z,12.33
2023-02-17T18:16:33.245Z,11.80
2023-02-17T18:19:02.278Z,11.20
2023-02-17T18:21:30.158Z,11.60
2023-02-17T18:23:59.375Z,11.57
2023-02-17T18:26:29.363Z,10.97
2023-02-17T18:28:58.581Z,12.00
2023-02-17T18:31:29.561Z,11.80
2023-02-17T18:33:58.045Z,11.47
2023-02-17T18:36:27.094Z,12.00
2023-02-17T18:38:59.125Z,12.20
2023-02-17T18:41:28.335Z,12.83
2023-02-17T18:43:57.011Z,12.03
2023-02-17T18:46:26.838Z,11.07
2023-02-17T18:48:55.309Z,12.70
2023-02-17T18:51:24.303Z,11.50
2023-02-17T18:53:52.378Z,12.23
2023-02-17T18:56:22.691Z,12.43
2023-02-17T18:58:50.805Z,12.30
2023-02-17T19:01:23.670Z,15.33
2023-02-17T19:03:52.050Z,14.83
2023-02-17T19:06:21.333Z,16.50
2023-02-17T19:08:51.253Z,15.93
2023-02-17T19:11:19.560Z,17.40
2023-02-17T19:13:48.831Z,16.07
2023-02-17T19:16:18.287Z,18.40
2023-02-17T19:18:46.532Z,17.73
2023-02-17T19:21:14.688Z,19.03
2023-02-17T19:23:42.933Z,17.87
2023-02-17T19:26:12.497Z,16.87
2023-02-17T19:28:42.950Z,18.00
2023-02-17T19:31:13.341Z,16.57
2023-02-17T19:33:43.146Z,17.83
2023-02-17T19:36:14.764Z,18.37
2023-02-17T19:38:44.518Z,18.10
2023-02-17T19:41:13.282Z,19.03
2023-02-17T19:43:41.567Z,19.27
2023-02-17T19:46:11.456Z,18.20
2023-02-17T19:48:40.759Z,17.67
2023-02-17T19:51:12.675Z,17.13
2023-02-17T19:53:41.020Z,16.83
2023-02-17T19:56:12.362Z,17.00
2023-02-17T19:58:42.410Z,18.50
2023-02-17T20:01:11.015Z,17.27
2023-02-17T20:03:40.181Z,17.97
2023-02-17T20:06:10.270Z,18.30
2023-02-17T20:08:38.390Z,19.80
2023-02-17T20:11:08.524Z,18.43
2023-02-17T20:13:45.255Z,17.90
2023-02-17T20:16:14.906Z,16.07
2023-02-17T20:18:44.753Z,16.87
2023-02-17T20:21:13.012Z,16.07
2023-02-17T20:23:40.776Z,17.83
2023-02-17T20:26:09.643Z,17.50
2023-02-17T20:28:40.700Z,15.97
2023-02-17T20:31:08.823Z,16.50
2023-02-17T20:33:36.893Z,16.13
2023-02-17T20:36:07.747Z,16.30
2023-02-17T20:38:37.493Z,16.70
2023-02-17T20:41:08.238Z,16.37
2023-02-17T20:43:36.836Z,14.93
2023-02-17T20:46:05.419Z,17.00
2023-02-17T20:48:33.585Z,16.73
2023-02-17T20:51:01.369Z,17.10
2023-02-17T20:53:30.513Z,16.80
2023-02-17T20:55:58.474Z,17.40
2023-02-17T20:58:26.253Z,16.90
2023-02-17T21:00:54.037Z,16.33
2023-02-17T21:03:21.969Z,15.90
2023-02-17T21:05:51.543Z,16.53
2023-02-17T21:08:20.252Z,15.80
2023-02-17T21:10:49.502Z,15.87
2023-02-17T21:13:17.265Z,16.50
2023-02-17T21:15:45.139Z,16.43
2023-02-17T21:18:14.121Z,16.33
2023-02-17T21:20:41.973Z,16.77
2023-02-17T21:23:09.691Z,15.97
2023-02-17T21:25:37.511Z,16.73
2023-02-17T21:28:06.658Z,15.90
2023-02-17T21:30:34.519Z,15.77
2023-02-17T21:33:02.339Z,15.93
2023-02-17T21:35:30.078Z,15.03
2023-02-17T21:38:00.893Z,14.83
2023-02-17T21:40:28.684Z,14.53
2023-02-17T21:43:18.952Z,14.80
2023-02-17T21:45:48.149Z,14.83
2023-02-17T21:48:15.892Z,13.97
2023-02-17T21:50:44.820Z,14.47
2023-02-17T21:53:15.403Z,14.73
2023-02-17T21:55:43.117Z,13.00
2023-02-17T21:58:13.521Z,12.33
2023-02-17T22:00:41.323Z,11.77
2023-02-17T22:03:10.610Z,11.70
2023-02-17T22:05:38.328Z,10.90
2023-02-17T22:08:06.341Z,10.67
2023-02-17T22:10:37.632Z,11.97
2023-02-17T22:13:06.226Z,11.30
2023-02-17T22:15:34.414Z,11.13
2023-02-17T22:18:02.362Z,9.90
2023-02-17T22:20:31.496Z,10.07
2023-02-17T22:22:59.260Z,9.93
2023-02-17T22:25:28.933Z,8.23
2023-02-17T22:27:56.752Z,10.23
2023-02-17T22:30:25.107Z,8.63
2023-02-17T22:32:55.916Z,7.83
2023-02-17T22:35:23.836Z,6.27
2023-02-17T22:37:56.046Z,4.40
2023-02-17T22:40:24.124Z,4.10
2023-02-17T22:42:53.894Z,6.87
2023-02-17T22:45:21.668Z,9.47
2023-02-17T22:47:49.515Z,8.70
2023-02-17T22:50:17.761Z,4.80
2023-02-17T22:52:45.547Z,7.23
2023-02-17T22:55:17.269Z,4.70
2023-02-17T22:57:45.950Z,4.50
2023-02-17T23:00:16.792Z,3.97
2023-02-17T23:02:44.586Z,3.40
2023-02-17T23:05:12.444Z,3.30
2023-02-17T23:07:40.209Z,3.70
2023-02-17T23:10:08.760Z,3.63
2023-02-17T23:12:38.325Z,3.87
2023-02-17T23:15:06.313Z,3.33
2023-02-17T23:17:54.131Z,4.10
2023-02-17T23:20:22.096Z,2.50
2023-02-17T23:22:49.934Z,2.60
2023-02-17T23:25:17.907Z,3.70
2023-02-17T23:27:47.075Z,3.20
2023-02-17T23:30:19.844Z,3.30
2023-02-17T23:32:53.006Z,3.80
2023-02-17T23:35:20.928Z,3.90
2023-02-17T23:37:50.615Z,4.30
2023-02-17T23:40:18.851Z,4.10
2023-02-17T23:42:48.207Z,3.60
2023-02-17T23:45:16.291Z,4.63
2023-02-17T23:47:44.164Z,4.93
2023-02-17T23:50:16.974Z,5.00
2023-02-17T23:52:47.725Z,4.80
2023-02-17T23:55:15.553Z,5.20
2023-02-17T23:57:43.341Z,5.33
